createdAt,value
2022-10-16T00:01:35.257Z,97152.47
2022-10-16T00:04:02.838Z,97150.69
2022-10-16T00:06:30.190Z,97156.69
2022-10-16T00:08:57.097Z,97155.00
2022-10-16T00:11:30.156Z,97164.28
2022-10-16T00:13:59.881Z,97156.44
2022-10-16T00:16:27.567Z,97162.31
2022-10-16T00:18:54.209Z,97173.84
2022-10-16T00:21:23.786Z,97172.97
2022-10-16T00:23:58.312Z,97168.44
2022-10-16T00:26:24.808Z,97167.25
2022-10-16T00:28:52.104Z,97169.66
2022-10-16T00:31:20.932Z,97167.50
2022-10-16T00:33:48.189Z,97166.03
2022-10-16T00:36:17.474Z,97166.03
2022-10-16T00:38:44.485Z,97169.38
2022-10-16T00:41:14.639Z,97178.38
2022-10-16T00:43:53.129Z,97180.25
2022-10-16T00:46:34.684Z,97177.22
2022-10-16T00:49:05.961Z,97176.97
2022-10-16T00:51:37.493Z,97174.38
2022-10-16T00:54:07.809Z,97188.97
2022-10-16T00:56:34.811Z,97180.97
2022-10-16T00:59:07.097Z,97174.91
2022-10-16T01:01:33.614Z,97184.72
2022-10-16T01:04:00.141Z,97178.72
2022-10-16T01:06:36.358Z,97178.22
2022-10-16T01:09:25.045Z,97180.97
2022-10-16T01:12:06.940Z,97187.84
2022-10-16T01:14:39.806Z,97192.47
2022-10-16T01:17:23.265Z,97200.81
2022-10-16T01:20:26.982Z,97188.38
2022-10-16T01:23:30.751Z,97191.75
2022-10-16T01:26:15.772Z,97184.28
2022-10-16T01:29:19.905Z,97185.63
2022-10-16T01:31:51.309Z,97182.78
2022-10-16T01:34:23.352Z,97173.59
2022-10-16T01:36:57.846Z,97174.47
2022-10-16T01:39:35.237Z,97178.97
2022-10-16T01:42:18.094Z,97180.78
2022-10-16T01:44:46.723Z,97181.00
2022-10-16T01:47:15.532Z,97183.00
2022-10-16T01:49:44.467Z,97186.38
2022-10-16T01:52:20.724Z,97191.94
2022-10-16T01:54:51.069Z,97179.84
2022-10-16T01:57:21.649Z,97183.00
2022-10-16T01:59:54.065Z,97184.81
2022-10-16T02:02:22.981Z,97190.25
2022-10-16T02:05:17.599Z,97180.88
2022-10-16T02:07:44.289Z,97189.72
2022-10-16T02:10:11.255Z,97182.56
2022-10-16T02:12:41.768Z,97186.91
2022-10-16T02:15:08.880Z,97203.00
2022-10-16T02:17:35.991Z,97203.53
2022-10-16T02:20:02.955Z,97215.44
2022-10-16T02:22:35.255Z,97222.69
2022-10-16T02:25:07.890Z,97224.78
2022-10-16T02:27:40.284Z,97211.53
2022-10-16T02:30:22.554Z,97208.06
2022-10-16T02:32:50.118Z,97211.63
2022-10-16T02:35:19.678Z,97205.53
2022-10-16T02:37:47.814Z,97201.63
2022-10-16T02:40:15.162Z,97211.75
2022-10-16T02:42:42.469Z,97214.91
2022-10-16T02:45:11.096Z,97210.47
2022-10-16T02:47:38.188Z,97220.47
2022-10-16T02:50:05.516Z,97223.44
2022-10-16T02:52:32.416Z,97225.94
2022-10-16T02:54:58.935Z,97217.22
2022-10-16T02:57:25.774Z,97219.53
2022-10-16T02:59:52.555Z,97229.66
2022-10-16T03:02:19.167Z,97232.91
2022-10-16T03:04:45.618Z,97227.34
2022-10-16T03:07:12.193Z,97231.34
2022-10-16T03:09:38.705Z,97233.56
2022-10-16T03:12:05.378Z,97241.25
2022-10-16T03:14:31.896Z,97237.28
2022-10-16T03:16:58.413Z,97230.53
2022-10-16T03:19:25.396Z,97244.53
2022-10-16T03:21:51.907Z,97241.28
2022-10-16T03:24:18.869Z,97245.56
2022-10-16T03:26:45.329Z,97248.00
2022-10-16T03:29:11.911Z,97239.56
2022-10-16T03:31:38.571Z,97239.13
2022-10-16T03:34:05.107Z,97240.16
2022-10-16T03:36:32.202Z,97243.72
2022-10-16T03:38:58.725Z,97242.69
2022-10-16T03:41:25.316Z,97236.44
2022-10-16T03:43:51.832Z,97229.06
2022-10-16T03:46:18.347Z,97227.78
2022-10-16T03:48:44.890Z,97238.09
2022-10-16T03:51:11.344Z,97242.72
2022-10-16T03:53:37.984Z,97238.25
2022-10-16T03:56:04.557Z,97234.69
2022-10-16T03:58:31.110Z,97243.53
2022-10-16T04:00:57.602Z,97251.19
2022-10-16T04:03:24.163Z,97250.31
2022-10-16T04:05:51.053Z,97248.13
2022-10-16T04:08:17.750Z,97262.19
2022-10-16T04:10:45.055Z,97260.97
2022-10-16T04:13:12.684Z,97262.00
2022-10-16T04:15:39.539Z,97259.75
2022-10-16T04:18:06.896Z,97261.56
2022-10-16T04:20:33.874Z,97260.28
2022-10-16T04:23:00.822Z,97264.75
2022-10-16T04:25:27.327Z,97256.97
2022-10-16T04:27:54.883Z,97268.53
2022-10-16T04:30:22.555Z,97271.25
2022-10-16T04:32:51.080Z,97265.44
2022-10-16T04:35:21.614Z,97265.66
2022-10-16T04:37:48.195Z,97269.69
2022-10-16T04:40:15.055Z,97260.91
2022-10-16T04:42:41.791Z,97249.31
2022-10-16T04:45:11.988Z,97257.47
2022-10-16T04:47:41.361Z,97266.59
2022-10-16T04:50:08.427Z,97262.25
2022-10-16T04:55:06.831Z,97274.47
2022-10-16T04:57:34.314Z,97274.84
2022-10-16T05:00:00.823Z,97278.59
2022-10-16T05:02:27.402Z,97280.38
2022-10-16T05:04:53.937Z,97268.19
2022-10-16T05:07:20.433Z,97275.72
2022-10-16T05:09:46.902Z,97280.94
2022-10-16T05:12:13.373Z,97288.75
2022-10-16T05:14:39.911Z,97286.56
2022-10-16T05:17:07.403Z,97292.09
2022-10-16T05:19:34.024Z,97292.66
2022-10-16T05:22:00.566Z,97294.03
2022-10-16T05:24:27.312Z,97280.44
2022-10-16T05:26:53.850Z,97281.41
2022-10-16T05:29:21.214Z,97284.97
2022-10-16T05:31:47.838Z,97290.47
2022-10-16T05:34:14.342Z,97287.09
2022-10-16T05:36:40.838Z,97283.53
2022-10-16T05:39:07.393Z,97282.56
2022-10-16T05:41:33.996Z,97281.69
2022-10-16T05:44:00.504Z,97283.66
2022-10-16T05:46:26.958Z,97283.06
2022-10-16T05:48:54.490Z,97288.91
2022-10-16T05:51:20.973Z,97288.53
2022-10-16T05:53:47.578Z,97286.56
2022-10-16T05:56:14.227Z,97282.59
2022-10-16T05:58:45.547Z,97287.47
2022-10-16T06:01:21.959Z,97285.84
2022-10-16T06:03:48.746Z,97277.13
2022-10-16T06:06:20.471Z,97279.25
2022-10-16T06:08:48.541Z,97278.69
2022-10-16T06:11:20.461Z,97289.97
2022-10-16T06:13:51.256Z,97282.84
2022-10-16T06:16:17.922Z,97279.66
2022-10-16T06:18:44.574Z,97286.91
2022-10-16T06:21:14.988Z,97287.44
2022-10-16T06:23:41.560Z,97288.31
2022-10-16T06:26:13.097Z,97294.63
2022-10-16T06:28:40.138Z,97295.50
2022-10-16T06:31:08.609Z,97292.44
2022-10-16T06:33:36.164Z,97293.97
2022-10-16T06:36:11.894Z,97295.84
2022-10-16T06:38:38.925Z,97293.25
2022-10-16T06:41:06.565Z,97293.84
2022-10-16T06:43:33.892Z,97300.69
2022-10-16T06:46:01.183Z,97308.09
2022-10-16T06:48:28.693Z,97310.78
2022-10-16T06:51:01.590Z,97314.41
2022-10-16T06:53:36.054Z,97314.25
2022-10-16T06:56:21.859Z,97318.13
2022-10-16T06:58:49.100Z,97321.34
2022-10-16T07:01:17.287Z,97323.03
2022-10-16T07:03:45.774Z,97328.34
2022-10-16T07:06:15.231Z,97328.06
2022-10-16T07:08:43.452Z,97340.41
2022-10-16T07:11:18.347Z,97338.59
2022-10-16T07:13:50.561Z,97342.31
2022-10-16T07:16:22.202Z,97341.34
2022-10-16T07:18:50.280Z,97354.59
2022-10-16T07:21:20.361Z,97345.38
2022-10-16T07:23:51.646Z,97350.06
2022-10-16T07:26:21.440Z,97361.41
2022-10-16T07:28:48.039Z,97359.41
2022-10-16T07:31:16.426Z,97363.75
2022-10-16T07:33:45.437Z,97366.13
2022-10-16T07:36:16.355Z,97360.31
2022-10-16T07:38:43.519Z,97356.50
2022-10-16T07:41:12.876Z,97355.44
2022-10-16T07:43:40.626Z,97355.25
2022-10-16T07:46:07.965Z,97364.91
2022-10-16T07:48:35.394Z,97364.16
2022-10-16T07:51:04.286Z,97358.56
2022-10-16T07:53:31.400Z,97359.78
2022-10-16T07:56:00.155Z,97362.16
2022-10-16T07:58:27.660Z,97360.81
2022-10-16T08:00:54.421Z,97357.72
2022-10-16T08:03:21.176Z,97354.63
2022-10-16T08:05:48.038Z,97357.19
2022-10-16T08:08:16.264Z,97363.03
2022-10-16T08:10:42.751Z,97371.22
2022-10-16T08:13:09.479Z,97367.28
2022-10-16T08:15:36.074Z,97377.81
2022-10-16T08:18:05.034Z,97373.31
2022-10-16T08:20:32.793Z,97368.25
2022-10-16T08:23:00.773Z,97376.75
2022-10-16T08:25:28.032Z,97374.94
2022-10-16T08:27:54.584Z,97367.25
2022-10-16T08:30:23.209Z,97378.00
2022-10-16T08:32:49.746Z,97384.53
2022-10-16T08:35:17.171Z,97381.88
2022-10-16T08:37:44.484Z,97391.34
2022-10-16T08:40:33.210Z,97397.69
2022-10-16T08:43:22.071Z,97391.47
2022-10-16T08:45:54.624Z,97402.53
2022-10-16T08:48:44.354Z,97406.81
2022-10-16T08:51:15.126Z,97412.38
2022-10-16T08:53:54.712Z,97415.50
2022-10-16T08:56:21.663Z,97421.22
2022-10-16T08:58:49.226Z,97422.31
2022-10-16T09:01:17.983Z,97412.97
2022-10-16T09:03:47.571Z,97420.06
2022-10-16T09:06:35.599Z,97414.59
2022-10-16T09:09:41.969Z,97417.22
2022-10-16T09:12:26.589Z,97420.72
2022-10-16T09:15:17.606Z,97421.44
2022-10-16T09:18:16.443Z,97415.16
2022-10-16T09:21:00.299Z,97425.63
2022-10-16T09:23:29.757Z,97423.84
2022-10-16T09:25:58.369Z,97419.44
2022-10-16T09:28:25.388Z,97426.66
2022-10-16T09:30:52.089Z,97424.25
2022-10-16T09:33:21.823Z,97425.56
2022-10-16T09:35:54.670Z,97426.75
2022-10-16T09:38:30.028Z,97426.44
2022-10-16T09:41:03.454Z,97421.13
2022-10-16T09:43:42.821Z,97420.66
2022-10-16T09:46:23.493Z,97421.28
2022-10-16T09:48:50.901Z,97420.47
2022-10-16T09:51:27.769Z,97418.16
2022-10-16T09:54:02.897Z,97409.63
2022-10-16T09:56:33.631Z,97417.22
2022-10-16T09:59:01.511Z,97409.19
2022-10-16T10:01:32.360Z,97417.47
2022-10-16T10:04:03.605Z,97408.41
2022-10-16T10:06:32.625Z,97412.53
2022-10-16T10:09:00.858Z,97414.53
2022-10-16T10:11:40.231Z,97414.31
2022-10-16T10:14:20.949Z,97409.66
2022-10-16T10:16:47.941Z,97415.13
2022-10-16T10:19:16.396Z,97411.34
2022-10-16T10:21:43.077Z,97411.41
2022-10-16T10:24:13.353Z,97408.81
2022-10-16T10:26:45.322Z,97401.00
2022-10-16T10:29:29.685Z,97398.09
2022-10-16T10:32:08.137Z,97398.81
2022-10-16T10:34:52.817Z,97387.69
2022-10-16T10:37:32.623Z,97386.31
2022-10-16T10:40:01.984Z,97381.16
2022-10-16T10:42:28.775Z,97384.81
2022-10-16T10:44:55.275Z,97379.75
2022-10-16T10:47:36.574Z,97372.75
2022-10-16T10:50:15.475Z,97381.81
2022-10-16T10:53:00.402Z,97383.66
2022-10-16T10:55:34.654Z,97382.69
2022-10-16T10:58:16.102Z,97386.22
2022-10-16T11:00:48.582Z,97382.19
2022-10-16T11:03:33.930Z,97381.72
2022-10-16T11:06:09.498Z,97375.50
2022-10-16T11:08:38.863Z,97382.44
2022-10-16T11:11:28.541Z,97381.19
2022-10-16T11:13:59.224Z,97389.41
2022-10-16T11:16:34.634Z,97382.75
2022-10-16T11:19:05.988Z,97381.06
2022-10-16T11:21:37.319Z,97371.06
2022-10-16T11:24:15.554Z,97376.88
2022-10-16T11:26:44.087Z,97367.94
2022-10-16T11:29:16.506Z,97370.16
2022-10-16T11:31:46.589Z,97367.72
2022-10-16T11:34:18.340Z,97364.94
2022-10-16T11:37:02.784Z,97369.97
2022-10-16T11:39:30.351Z,97363.13
2022-10-16T11:41:57.049Z,97360.72
2022-10-16T11:44:23.391Z,97363.88
2022-10-16T11:47:00.967Z,97363.91
2022-10-16T11:49:37.240Z,97355.59
2022-10-16T11:52:09.051Z,97348.03
2022-10-16T11:54:44.404Z,97363.25
2022-10-16T11:57:16.988Z,97364.03
2022-10-16T12:00:03.629Z,97368.13
2022-10-16T12:02:51.895Z,97360.66
2022-10-16T12:05:30.800Z,97353.38
2022-10-16T12:08:02.740Z,97354.94
2022-10-16T12:10:30.433Z,97358.75
2022-10-16T12:12:57.841Z,97358.16
2022-10-16T12:15:46.901Z,97360.63
2022-10-16T12:18:25.426Z,97361.19
2022-10-16T12:21:06.459Z,97360.50
2022-10-16T12:23:34.131Z,97363.09
2022-10-16T12:26:03.314Z,97366.91
2022-10-16T12:28:31.104Z,97366.13
2022-10-16T12:30:59.662Z,97366.78
2022-10-16T12:33:30.845Z,97360.09
2022-10-16T12:35:59.081Z,97352.44
2022-10-16T12:38:34.249Z,97353.38
2022-10-16T12:41:04.791Z,97357.31
2022-10-16T12:43:44.336Z,97361.38
2022-10-16T12:46:10.758Z,97358.84
2022-10-16T12:48:49.165Z,97357.00
2022-10-16T12:51:35.758Z,97358.41
2022-10-16T12:54:30.538Z,97363.19
2022-10-16T12:57:28.029Z,97366.09
2022-10-16T13:00:26.390Z,97367.59
2022-10-16T13:02:58.551Z,97375.50
2022-10-16T13:05:41.731Z,97366.75
2022-10-16T13:08:26.921Z,97371.09
2022-10-16T13:11:12.429Z,97359.25
2022-10-16T13:14:06.945Z,97364.47
2022-10-16T13:16:55.713Z,97378.63
2022-10-16T13:19:30.530Z,97379.19
2022-10-16T13:22:15.542Z,97380.28
2022-10-16T13:25:03.449Z,97381.81
2022-10-16T13:27:51.382Z,97388.38
2022-10-16T13:30:23.114Z,97382.81
2022-10-16T13:33:01.999Z,97382.81
2022-10-16T13:35:32.360Z,97382.09
2022-10-16T13:38:21.440Z,97387.97
2022-10-16T13:40:54.308Z,97381.09
2022-10-16T13:43:24.509Z,97381.06
2022-10-16T13:46:02.941Z,97388.06
2022-10-16T13:48:31.232Z,97394.53
2022-10-16T13:51:05.218Z,97386.03
2022-10-16T13:53:36.614Z,97390.97
2022-10-16T13:56:05.890Z,97395.44
2022-10-16T13:58:32.692Z,97386.31
2022-10-16T14:01:06.534Z,97390.97
2022-10-16T14:03:36.592Z,97387.75
2022-10-16T14:06:05.582Z,97387.09
2022-10-16T14:08:32.703Z,97385.19
2022-10-16T14:11:02.157Z,97392.47
2022-10-16T14:13:51.657Z,97393.59
2022-10-16T14:16:23.953Z,97390.16
2022-10-16T14:18:58.786Z,97391.56
2022-10-16T14:21:26.213Z,97390.84
2022-10-16T14:23:53.227Z,97398.59
2022-10-16T14:26:20.893Z,97402.22
2022-10-16T14:28:48.018Z,97397.91
2022-10-16T14:31:20.553Z,97401.63
2022-10-16T14:33:46.985Z,97397.47
2022-10-16T14:36:15.377Z,97398.00
2022-10-16T14:38:43.391Z,97401.81
2022-10-16T14:41:10.153Z,97402.25
2022-10-16T14:43:38.311Z,97400.47
2022-10-16T14:46:07.502Z,97394.28
2022-10-16T14:48:33.934Z,97404.19
2022-10-16T14:51:00.324Z,97410.09
2022-10-16T14:53:26.701Z,97405.53
2022-10-16T14:55:53.290Z,97407.56
2022-10-16T14:58:21.367Z,97406.78
2022-10-16T15:00:47.887Z,97409.06
2022-10-16T15:03:14.280Z,97409.72
2022-10-16T15:05:40.822Z,97412.66
2022-10-16T15:08:07.291Z,97409.41
2022-10-16T15:10:36.717Z,97413.91
2022-10-16T15:13:03.139Z,97407.03
2022-10-16T15:15:36.608Z,97410.31
2022-10-16T15:18:03.784Z,97405.16
2022-10-16T15:20:32.259Z,97412.91
2022-10-16T15:22:58.627Z,97408.78
2022-10-16T15:25:43.908Z,97413.88
2022-10-16T15:28:10.696Z,97420.00
2022-10-16T15:30:37.690Z,97419.03
2022-10-16T15:33:05.862Z,97422.88
2022-10-16T15:35:32.647Z,97421.78
2022-10-16T15:37:59.218Z,97422.78
2022-10-16T15:40:25.787Z,97419.94
2022-10-16T15:42:52.267Z,97420.81
2022-10-16T15:45:20.224Z,97423.84
2022-10-16T15:47:47.551Z,97430.50
2022-10-16T15:50:15.744Z,97428.50
2022-10-16T15:52:42.809Z,97430.66
2022-10-16T15:55:10.988Z,97432.47
2022-10-16T15:57:39.281Z,97430.59
2022-10-16T16:00:11.399Z,97422.34
2022-10-16T16:02:38.154Z,97430.34
2022-10-16T16:05:05.547Z,97426.63
2022-10-16T16:07:39.461Z,97433.97
2022-10-16T16:10:08.751Z,97434.38
2022-10-16T16:12:36.055Z,97436.31
2022-10-16T16:15:05.039Z,97446.28
2022-10-16T16:17:32.860Z,97448.88
2022-10-16T16:19:59.456Z,97444.50
2022-10-16T16:22:26.498Z,97450.09
2022-10-16T16:24:53.287Z,97450.00
2022-10-16T16:27:20.841Z,97457.81
2022-10-16T16:29:48.109Z,97466.97
2022-10-16T16:32:14.659Z,97468.13
2022-10-16T16:34:41.150Z,97469.44
2022-10-16T16:37:07.910Z,97477.75
2022-10-16T16:39:35.617Z,97465.31
2022-10-16T16:42:03.993Z,97472.34
2022-10-16T16:44:30.766Z,97471.88
2022-10-16T16:46:57.244Z,97478.13
2022-10-16T16:49:24.001Z,97479.13
2022-10-16T16:51:50.608Z,97482.19
2022-10-16T16:54:17.153Z,97486.81
2022-10-16T16:56:44.383Z,97495.81
2022-10-16T16:59:21.054Z,97501.06
2022-10-16T17:01:49.981Z,97505.09
2022-10-16T17:04:20.063Z,97508.34
2022-10-16T17:06:46.585Z,97512.16
2022-10-16T17:09:14.379Z,97519.69
2022-10-16T17:11:45.559Z,97519.53
2022-10-16T17:14:12.228Z,97526.66
2022-10-16T17:16:40.104Z,97527.38
2022-10-16T17:19:13.387Z,97534.78
2022-10-16T17:21:40.082Z,97541.25
2022-10-16T17:24:06.942Z,97544.78
2022-10-16T17:26:38.135Z,97536.63
2022-10-16T17:29:05.360Z,97546.84
2022-10-16T17:31:36.851Z,97546.97
2022-10-16T17:34:06.976Z,97550.59
2022-10-16T17:36:36.068Z,97550.59
2022-10-16T17:39:08.399Z,97556.84
2022-10-16T17:41:36.565Z,97557.38
2022-10-16T17:44:03.829Z,97556.22
2022-10-16T17:46:36.927Z,97556.06
2022-10-16T17:49:06.795Z,97562.41
2022-10-16T17:51:33.420Z,97566.91
2022-10-16T17:54:01.562Z,97561.81
2022-10-16T17:56:29.189Z,97564.72
2022-10-16T17:58:59.839Z,97564.63
2022-10-16T18:01:32.520Z,97583.19
2022-10-16T18:04:05.137Z,97573.34
2022-10-16T18:06:32.373Z,97576.91
2022-10-16T18:08:59.773Z,97588.22
2022-10-16T18:11:27.092Z,97587.63
2022-10-16T18:13:57.982Z,97584.50
2022-10-16T18:16:27.076Z,97587.84
2022-10-16T18:18:54.986Z,97584.38
2022-10-16T18:21:22.239Z,97592.84
2022-10-16T18:23:51.799Z,97596.28
2022-10-16T18:26:19.947Z,97597.13
2022-10-16T18:28:46.543Z,97594.66
2022-10-16T18:31:15.454Z,97592.78
2022-10-16T18:33:48.075Z,97596.78
2022-10-16T18:36:16.470Z,97604.81
2022-10-16T18:38:43.144Z,97592.47
2022-10-16T18:41:11.258Z,97597.13
2022-10-16T18:43:39.283Z,97596.91
2022-10-16T18:46:10.998Z,97594.47
2022-10-16T18:48:37.964Z,97596.53
2022-10-16T18:51:21.910Z,97600.41
2022-10-16T18:53:51.970Z,97593.81
2022-10-16T18:56:19.533Z,97596.22
2022-10-16T18:58:49.075Z,97601.66
2022-10-16T19:01:20.992Z,97601.91
2022-10-16T19:03:49.086Z,97604.31
2022-10-16T19:06:16.912Z,97607.19
2022-10-16T19:08:44.147Z,97621.31
2022-10-16T19:11:19.166Z,97623.47
2022-10-16T19:13:50.513Z,97621.19
2022-10-16T19:16:21.219Z,97622.88
2022-10-16T19:18:49.523Z,97624.06
2022-10-16T19:21:16.409Z,97630.84
2022-10-16T19:23:43.171Z,97632.50
2022-10-16T19:26:16.994Z,97628.41
2022-10-16T19:28:44.402Z,97633.00
2022-10-16T19:31:13.915Z,97630.19
2022-10-16T19:33:41.048Z,97633.09
2022-10-16T19:36:09.759Z,97641.88
2022-10-16T19:38:36.303Z,97634.91
2022-10-16T19:41:06.734Z,97637.31
2022-10-16T19:43:33.203Z,97645.25
2022-10-16T19:46:06.400Z,97649.56
2022-10-16T19:48:33.000Z,97655.13
2022-10-16T19:50:59.642Z,97652.31
2022-10-16T19:53:28.485Z,97655.06
2022-10-16T19:55:56.138Z,97656.84
2022-10-16T19:58:23.635Z,97659.84
2022-10-16T20:00:50.302Z,97662.88
2022-10-16T20:03:17.874Z,97657.41
2022-10-16T20:05:53.274Z,97669.00
2022-10-16T20:08:19.814Z,97667.56
2022-10-16T20:10:54.751Z,97673.53
2022-10-16T20:13:22.558Z,97672.78
2022-10-16T20:15:49.763Z,97678.72
2022-10-16T20:18:17.061Z,97677.84
2022-10-16T20:20:48.466Z,97683.72
2022-10-16T20:23:16.658Z,97686.91
2022-10-16T20:25:43.725Z,97684.38
2022-10-16T20:28:13.497Z,97685.78
2022-10-16T20:30:43.041Z,97691.91
2022-10-16T20:33:09.714Z,97698.84
2022-10-16T20:35:42.554Z,97693.03
2022-10-16T20:38:09.982Z,97698.84
2022-10-16T20:40:38.212Z,97697.50
2022-10-16T20:43:05.833Z,97698.16
2022-10-16T20:45:32.685Z,97705.44
2022-10-16T20:47:59.556Z,97706.94
2022-10-16T20:50:30.060Z,97706.50
2022-10-16T20:52:58.375Z,97711.16
2022-10-16T20:55:25.575Z,97719.09
2022-10-16T20:57:52.110Z,97714.84
2022-10-16T21:00:19.024Z,97714.22
2022-10-16T21:02:49.307Z,97716.34
2022-10-16T21:05:16.027Z,97723.34
2022-10-16T21:07:42.489Z,97722.59
2022-10-16T21:10:09.491Z,97726.16
2022-10-16T21:12:36.002Z,97726.38
2022-10-16T21:15:14.466Z,97727.66
2022-10-16T21:17:41.563Z,97729.44
2022-10-16T21:20:08.495Z,97733.78
2022-10-16T21:22:34.989Z,97738.38
2022-10-16T21:25:01.641Z,97735.94
2022-10-16T21:27:28.260Z,97736.34
2022-10-16T21:29:54.787Z,97735.50
2022-10-16T21:32:21.379Z,97740.75
2022-10-16T21:34:48.285Z,97734.75
2022-10-16T21:37:14.846Z,97738.34
2022-10-16T21:39:41.354Z,97737.69
2022-10-16T21:42:07.903Z,97741.25
2022-10-16T21:44:34.375Z,97732.13
2022-10-16T21:47:00.836Z,97739.09
2022-10-16T21:49:27.457Z,97740.16
2022-10-16T21:51:53.953Z,97739.94
2022-10-16T21:54:22.425Z,97733.28
2022-10-16T21:56:49.615Z,97738.94
2022-10-16T21:59:16.358Z,97740.47
2022-10-16T22:01:43.698Z,97741.03
2022-10-16T22:04:12.189Z,97741.25
2022-10-16T22:06:38.953Z,97740.78
2022-10-16T22:09:05.559Z,97737.66
2022-10-16T22:11:37.649Z,97734.38
2022-10-16T22:14:15.886Z,97740.41
2022-10-16T22:16:43.264Z,97740.94
2022-10-16T22:19:10.898Z,97740.03
2022-10-16T22:21:39.307Z,97745.63
2022-10-16T22:24:07.108Z,97741.06
2022-10-16T22:26:34.492Z,97740.72
2022-10-16T22:29:01.079Z,97741.75
2022-10-16T22:31:27.944Z,97742.78
2022-10-16T22:33:58.923Z,97743.75
2022-10-16T22:36:26.439Z,97742.44
2022-10-16T22:38:53.397Z,97741.13
2022-10-16T22:41:21.343Z,97737.09
2022-10-16T22:43:49.233Z,97736.16
2022-10-16T22:46:20.479Z,97730.88
2022-10-16T22:48:46.950Z,97729.38
2022-10-16T22:51:16.890Z,97726.72
2022-10-16T22:53:45.272Z,97729.16
2022-10-16T22:56:13.010Z,97728.44
2022-10-16T22:58:40.216Z,97734.75
2022-10-16T23:01:25.046Z,97730.13
2022-10-16T23:03:51.539Z,97726.19
2022-10-16T23:06:18.109Z,97728.44
2022-10-16T23:08:44.620Z,97732.13
2022-10-16T23:11:13.027Z,97729.47
2022-10-16T23:13:45.043Z,97732.13
2022-10-16T23:16:13.031Z,97730.41
2022-10-16T23:18:40.321Z,97732.13
2022-10-16T23:21:09.132Z,97741.41
2022-10-16T23:23:37.156Z,97744.22
2022-10-16T23:26:04.335Z,97741.84
2022-10-16T23:28:32.311Z,97744.88
2022-10-16T23:30:58.920Z,97750.53
2022-10-16T23:33:25.254Z,97751.25
2022-10-16T23:35:51.704Z,97752.78
2022-10-16T23:38:18.043Z,97756.34
2022-10-16T23:40:44.450Z,97758.13
2022-10-16T23:43:10.872Z,97752.56
2022-10-16T23:45:38.301Z,97755.31
2022-10-16T23:48:04.675Z,97752.00
2022-10-16T23:50:31.051Z,97751.22
2022-10-16T23:52:57.411Z,97751.16
2022-10-16T23:55:23.874Z,97750.66
2022-10-16T23:57:50.281Z,97748.38
